createdAt,value
2023-02-22T00:00:47.850Z,92863.00
2023-02-22T00:01:47.919Z,92861.00
2023-02-22T00:02:47.969Z,92863.00
2023-02-22T00:03:48.021Z,92861.00
2023-02-22T00:04:48.071Z,92857.00
2023-02-22T00:05:48.127Z,92859.00
2023-02-22T00:06:48.182Z,92857.00
2023-02-22T00:07:48.266Z,92859.00
2023-02-22T00:08:48.295Z,92857.00
2023-02-22T00:09:48.371Z,92859.00
2023-02-22T00:10:48.431Z,92859.00
2023-02-22T00:11:48.480Z,92859.00
2023-02-22T00:12:48.527Z,92857.00
2023-02-22T00:13:48.587Z,92857.00
2023-02-22T00:14:48.646Z,92857.00
2023-02-22T00:15:48.701Z,92859.00
2023-02-22T00:16:48.763Z,92857.00
2023-02-22T00:17:48.824Z,92859.00
2023-02-22T00:18:48.875Z,92859.00
2023-02-22T00:19:48.931Z,92855.00
2023-02-22T00:20:48.986Z,92863.00
2023-02-22T00:21:49.064Z,92857.00
2023-02-22T00:22:49.116Z,92857.00
2023-02-22T00:23:49.191Z,92857.00
2023-02-22T00:24:49.239Z,92853.00
2023-02-22T00:25:49.332Z,92851.00
2023-02-22T00:26:49.357Z,92851.00
2023-02-22T00:27:49.412Z,92851.00
2023-02-22T00:28:49.533Z,92845.00
2023-02-22T01:04:51.770Z,92830.00
2023-02-22T01:05:51.887Z,92830.00
2023-02-22T01:06:51.908Z,92832.00
2023-02-22T01:07:51.972Z,92832.00
2023-02-22T01:08:52.043Z,92832.00
2023-02-22T01:09:52.219Z,92832.00
2023-02-22T01:10:52.171Z,92830.00
2023-02-22T01:11:52.270Z,92828.00
2023-02-22T01:12:52.305Z,92828.00
2023-02-22T01:13:52.358Z,92828.00
2023-02-22T01:14:52.432Z,92828.00
2023-02-22T01:15:52.504Z,92828.00
2023-02-22T01:16:52.594Z,92828.00
2023-02-22T01:17:52.664Z,92826.00
2023-02-22T01:18:52.757Z,92826.00
2023-02-22T01:19:54.019Z,92824.00
2023-02-22T01:20:52.836Z,92824.00
2023-02-22T01:21:52.909Z,92822.00
2023-02-22T01:22:52.994Z,92822.00
2023-02-22T01:23:53.096Z,92822.00
2023-02-22T01:24:53.118Z,92820.00
2023-02-22T01:25:53.189Z,92818.00
2023-02-22T01:26:53.266Z,92814.00
2023-02-22T01:27:54.014Z,92816.00
2023-02-22T01:28:53.377Z,92814.00
2023-02-22T01:29:53.455Z,92812.00
2023-02-22T01:30:53.614Z,92810.00
2023-02-22T01:31:53.592Z,92812.00
2023-02-22T01:32:53.667Z,92810.00
2023-02-22T01:33:53.752Z,92808.00
2023-02-22T01:34:53.801Z,92808.00
2023-02-22T01:35:53.921Z,92808.00
2023-02-22T01:36:53.947Z,92806.00
2023-02-22T01:37:54.012Z,92806.00
2023-02-22T01:38:54.089Z,92806.00
2023-02-22T01:39:54.150Z,92808.00
2023-02-22T01:40:54.219Z,92808.00
2023-02-22T01:41:54.284Z,92808.00
2023-02-22T01:42:54.351Z,92806.00
2023-02-22T01:43:54.421Z,92804.00
2023-02-22T01:44:54.496Z,92806.00
2023-02-22T01:45:54.576Z,92806.00
2023-02-22T01:46:54.633Z,92804.00
2023-02-22T01:47:54.788Z,92804.00
2023-02-22T01:48:54.838Z,92800.00
2023-02-22T01:49:54.849Z,92800.00
2023-02-22T01:50:54.939Z,92800.00
2023-02-22T01:51:54.990Z,92802.00
2023-02-22T01:52:55.053Z,92802.00
2023-02-22T01:53:55.129Z,92800.00
2023-02-22T01:54:55.237Z,92802.00
2023-02-22T01:55:55.260Z,92802.00
2023-02-22T01:56:55.344Z,92800.00
2023-02-22T01:57:55.415Z,92798.00
2023-02-22T01:58:55.477Z,92798.00
2023-02-22T02:33:57.962Z,92763.00
2023-02-22T03:42:01.732Z,92743.00
2023-02-22T03:43:01.734Z,92747.00
2023-02-22T03:44:01.808Z,92745.00
2023-02-22T03:45:01.856Z,92741.00
2023-02-22T03:46:01.925Z,92741.00
2023-02-22T03:47:01.982Z,92743.00
2023-02-22T03:49:02.127Z,92738.00
2023-02-22T08:02:11.789Z,92694.00
2023-02-22T08:03:11.858Z,92696.00
2023-02-22T08:04:11.897Z,92696.00
2023-02-22T08:05:11.940Z,92693.00
2023-02-22T08:06:12.059Z,92689.00
2023-02-22T08:07:12.025Z,92689.00
2023-02-22T08:08:12.068Z,92689.00
2023-02-22T08:09:12.101Z,92689.00
2023-02-22T08:10:12.187Z,92685.00
2023-02-22T08:11:12.201Z,92687.00
2023-02-22T08:12:12.262Z,92691.00
2023-02-22T08:13:12.325Z,92693.00
2023-02-22T08:14:12.383Z,92691.00
2023-02-22T08:15:12.447Z,92687.00
2023-02-22T08:16:12.499Z,92687.00
2023-02-22T08:17:12.585Z,92689.00
2023-02-22T08:18:13.146Z,92687.00
2023-02-22T08:19:12.693Z,92681.00
2023-02-22T08:20:12.721Z,92677.00
2023-02-22T08:21:12.751Z,92683.00
2023-02-22T08:22:12.757Z,92677.00
2023-02-22T08:23:12.772Z,92679.00
2023-02-22T08:24:12.766Z,92669.00
2023-02-22T08:25:12.783Z,92667.00
2023-02-22T08:26:12.778Z,92665.00
2023-02-22T08:27:13.646Z,92669.00
2023-02-22T08:28:12.803Z,92671.00
2023-02-22T08:29:12.795Z,92667.00
2023-02-22T08:30:12.853Z,92667.00
2023-02-22T08:31:12.904Z,92667.00
2023-02-22T08:32:12.913Z,92661.00
2023-02-22T08:33:12.981Z,92663.00
2023-02-22T08:34:12.849Z,92657.00
2023-02-22T08:35:12.849Z,92659.00
2023-02-22T08:36:12.929Z,92657.00
2023-02-22T08:37:12.887Z,92655.00
2023-02-22T08:38:13.657Z,92653.00
2023-02-22T08:39:12.909Z,92655.00
2023-02-22T08:40:14.849Z,92651.00
2023-02-22T08:41:12.924Z,92655.00
2023-02-22T08:42:12.945Z,92651.00
2023-02-22T08:43:12.954Z,92653.00
2023-02-22T08:44:12.971Z,92653.00
2023-02-22T08:45:12.993Z,92653.00
2023-02-22T08:46:13.010Z,92653.00
2023-02-22T08:47:13.026Z,92649.00
2023-02-22T08:48:13.048Z,92645.00
2023-02-22T08:49:13.092Z,92645.00
2023-02-22T08:50:13.076Z,92647.00
2023-02-22T08:51:13.653Z,92647.00
2023-02-22T08:52:13.092Z,92641.00
2023-02-22T08:53:13.674Z,92645.00
2023-02-22T08:54:13.652Z,92638.00
2023-02-22T08:55:13.164Z,92636.00
2023-02-22T08:56:13.191Z,92636.00
2023-02-22T08:57:13.206Z,92634.00
2023-02-22T08:58:13.225Z,92632.00
2023-02-22T08:59:13.218Z,92630.00
2023-02-22T09:00:13.241Z,92626.00
2023-02-22T09:01:15.521Z,92626.00
2023-02-22T09:02:14.254Z,92624.00
2023-02-22T09:03:13.332Z,92626.00
2023-02-22T09:04:13.259Z,92624.00
2023-02-22T09:05:13.249Z,92622.00
2023-02-22T09:06:13.256Z,92622.00
2023-02-22T09:07:13.236Z,92622.00
2023-02-22T09:08:13.249Z,92620.00
2023-02-22T09:09:13.221Z,92620.00
2023-02-22T09:10:13.213Z,92618.00
2023-02-22T09:11:13.215Z,92616.00
2023-02-22T09:12:13.216Z,92614.00
2023-02-22T09:13:13.205Z,92612.00
2023-02-22T09:14:13.192Z,92612.00
2023-02-22T09:15:13.284Z,92608.00
2023-02-22T09:16:13.209Z,92606.00
2023-02-22T09:17:13.174Z,92606.00
2023-02-22T09:18:13.178Z,92602.00
2023-02-22T09:19:13.166Z,92604.00
2023-02-22T09:20:13.169Z,92598.00
2023-02-22T09:21:13.158Z,92596.00
2023-02-22T09:22:13.230Z,92594.00
2023-02-22T09:23:13.133Z,92592.00
2023-02-22T09:24:13.142Z,92589.00
2023-02-22T09:25:16.978Z,92587.00
2023-02-22T09:26:13.133Z,92589.00
2023-02-22T09:27:13.652Z,92585.00
2023-02-22T09:28:13.674Z,92587.00
2023-02-22T09:29:13.123Z,92585.00
2023-02-22T09:30:13.122Z,92577.00
2023-02-22T09:31:13.125Z,92575.00
2023-02-22T09:32:13.259Z,92573.00
2023-02-22T09:33:13.290Z,92571.00
2023-02-22T09:34:13.126Z,92569.00
2023-02-22T09:35:13.151Z,92563.00
2023-02-22T09:36:13.114Z,92561.00
2023-02-22T09:37:13.662Z,92561.00
2023-02-22T09:38:13.120Z,92559.00
2023-02-22T09:39:13.087Z,92559.00
2023-02-22T09:40:13.084Z,92554.00
2023-02-22T09:41:13.075Z,92554.00
2023-02-22T09:42:13.086Z,92550.00
2023-02-22T09:43:13.063Z,92550.00
2023-02-22T09:44:13.663Z,92552.00
2023-02-22T09:45:13.062Z,92548.00
2023-02-22T09:46:13.105Z,92544.00
2023-02-22T09:47:13.699Z,92542.00
2023-02-22T09:48:21.701Z,92542.00
2023-02-22T09:49:14.042Z,92542.00
2023-02-22T09:50:13.671Z,92540.00
2023-02-22T09:51:13.038Z,92544.00
2023-02-22T09:52:13.064Z,92542.00
2023-02-22T09:53:13.068Z,92538.00
2023-02-22T09:54:13.661Z,92538.00
2023-02-22T09:55:13.671Z,92536.00
2023-02-22T09:56:13.069Z,92536.00
2023-02-22T09:57:13.019Z,92534.00
2023-02-22T09:58:13.013Z,92534.00
2023-02-22T09:59:12.998Z,92530.00
2023-02-22T10:00:13.041Z,92528.00
2023-02-22T10:01:12.984Z,92530.00
2023-02-22T10:02:12.985Z,92532.00
2023-02-22T10:03:13.680Z,92530.00
2023-02-22T10:04:12.977Z,92530.00
2023-02-22T10:05:12.961Z,92526.00
2023-02-22T10:06:12.966Z,92526.00
2023-02-22T10:07:12.924Z,92524.00
2023-02-22T10:08:12.904Z,92522.00
2023-02-22T10:09:12.909Z,92518.00
2023-02-22T10:10:12.894Z,92520.00
2023-02-22T10:11:12.900Z,92518.00
2023-02-22T10:12:12.897Z,92518.00
2023-02-22T10:13:12.882Z,92516.00
2023-02-22T10:14:12.867Z,92514.00
2023-02-22T10:15:12.878Z,92512.00
2023-02-22T10:16:12.878Z,92510.00
2023-02-22T10:17:12.906Z,92508.00
2023-02-22T10:18:12.829Z,92508.00
2023-02-22T10:19:12.823Z,92504.00
2023-02-22T10:20:12.799Z,92502.00
2023-02-22T10:21:12.804Z,92500.00
2023-02-22T10:22:12.787Z,92499.00
2023-02-22T10:23:13.695Z,92499.00
2023-02-22T10:24:12.786Z,92497.00
2023-02-22T10:25:12.842Z,92495.00
2023-02-22T10:26:12.760Z,92495.00
2023-02-22T10:27:13.194Z,92495.00
2023-02-22T10:28:12.758Z,92491.00
2023-02-22T10:29:12.749Z,92493.00
2023-02-22T10:30:23.786Z,92489.00
2023-02-22T10:31:13.807Z,92489.00
2023-02-22T10:32:12.964Z,92491.00
2023-02-22T10:33:12.713Z,92487.00
2023-02-22T10:34:12.711Z,92485.00
2023-02-22T10:35:12.692Z,92485.00
2023-02-22T10:36:13.190Z,92479.00
2023-02-22T10:37:13.213Z,92477.00
2023-02-22T10:38:12.669Z,92477.00
2023-02-22T10:39:12.646Z,92473.00
2023-02-22T10:40:12.643Z,92473.00
2023-02-22T10:41:12.631Z,92465.00
2023-02-22T10:42:12.602Z,92463.00
2023-02-22T10:43:12.592Z,92461.00
2023-02-22T10:45:12.679Z,92457.00
2023-02-22T10:46:12.801Z,92455.00
2023-02-22T10:47:12.769Z,92452.00
2023-02-22T10:48:12.819Z,92453.00
2023-02-22T10:49:12.907Z,92453.00
2023-02-22T10:50:12.932Z,92448.00
2023-02-22T11:25:14.343Z,92383.00
2023-02-22T11:26:15.366Z,92381.00
2023-02-22T11:27:14.327Z,92379.00
2023-02-22T11:34:14.369Z,92361.00
2023-02-22T12:53:15.473Z,92236.00
2023-02-22T13:05:15.428Z,92220.00
2023-02-22T13:25:15.318Z,92193.00
2023-02-22T13:26:15.367Z,92195.00
2023-02-22T13:27:15.401Z,92193.00
2023-02-22T13:28:15.463Z,92191.00
2023-02-22T13:29:15.476Z,92193.00
2023-02-22T13:30:15.549Z,92189.00
2023-02-22T13:31:15.856Z,92187.00
2023-02-22T13:32:15.652Z,92187.00
2023-02-22T13:33:15.569Z,92189.00
2023-02-22T13:34:15.593Z,92183.00
2023-02-22T13:35:15.615Z,92183.00
2023-02-22T13:36:15.911Z,92181.00
2023-02-22T13:37:15.616Z,92181.00
2023-02-22T13:38:15.623Z,92179.00
2023-02-22T13:39:15.626Z,92177.00
2023-02-22T13:40:15.639Z,92179.00
2023-02-22T13:41:15.904Z,92175.00
2023-02-22T13:42:15.641Z,92175.00
2023-02-22T13:43:15.770Z,92175.00
2023-02-22T13:44:15.650Z,92177.00
2023-02-22T13:45:15.651Z,92173.00
2023-02-22T13:46:15.874Z,92173.00
2023-02-22T13:47:15.606Z,92172.00
2023-02-22T13:48:15.587Z,92170.00
2023-02-22T13:49:15.577Z,92170.00
2023-02-22T13:50:15.561Z,92168.00
2023-02-22T13:51:15.537Z,92170.00
2023-02-22T13:52:15.502Z,92170.00
2023-02-22T13:53:15.472Z,92164.00
2023-02-22T13:54:15.455Z,92166.00
2023-02-22T13:55:15.429Z,92166.00
2023-02-22T13:56:15.882Z,92166.00
2023-02-22T13:58:15.321Z,92164.00
2023-02-22T13:59:15.300Z,92160.00
2023-02-22T14:00:15.274Z,92162.00
2023-02-22T14:01:15.349Z,92158.00
2023-02-22T14:02:15.227Z,92164.00
2023-02-22T14:03:15.193Z,92158.00
2023-02-22T14:04:15.150Z,92158.00
2023-02-22T14:05:15.141Z,92158.00
2023-02-22T14:06:15.400Z,92156.00
2023-02-22T14:07:15.070Z,92158.00
2023-02-22T14:08:15.050Z,92162.00
2023-02-22T14:09:15.008Z,92160.00
2023-02-22T14:10:14.976Z,92158.00
2023-02-22T14:11:14.950Z,92156.00
2023-02-22T14:12:14.925Z,92158.00
2023-02-22T14:13:14.894Z,92156.00
2023-02-22T14:14:14.870Z,92152.00
2023-02-22T14:15:28.744Z,92152.00
2023-02-22T14:16:16.284Z,92152.00
2023-02-22T14:17:14.762Z,92146.00
2023-02-22T14:18:14.768Z,92148.00
2023-02-22T14:19:14.709Z,92148.00
2023-02-22T14:20:14.715Z,92146.00
2023-02-22T14:21:14.643Z,92148.00
2023-02-22T14:26:14.594Z,92148.00
2023-02-22T14:33:14.265Z,92140.00
2023-02-22T14:34:14.246Z,92142.00
2023-02-22T14:37:14.144Z,92138.00
2023-02-22T14:38:14.139Z,92140.00
2023-02-22T14:39:14.147Z,92138.00
2023-02-22T14:40:14.160Z,92136.00
2023-02-22T14:41:14.170Z,92138.00
2023-02-22T14:42:14.233Z,92136.00
2023-02-22T14:43:14.236Z,92136.00
2023-02-22T14:44:14.252Z,92140.00
2023-02-22T14:45:14.271Z,92140.00
2023-02-22T14:49:14.390Z,92134.00
2023-02-22T14:50:14.413Z,92134.00
2023-02-22T14:51:21.416Z,92134.00
2023-02-22T14:52:15.435Z,92134.00
2023-02-22T14:53:14.407Z,92134.00
2023-02-22T14:54:14.387Z,92136.00
2023-02-22T14:55:14.350Z,92136.00
2023-02-22T14:56:14.323Z,92136.00
2023-02-22T14:57:14.308Z,92136.00
2023-02-22T14:58:14.280Z,92132.00
2023-02-22T14:59:14.266Z,92134.00
2023-02-22T15:00:14.281Z,92136.00
2023-02-22T15:01:14.319Z,92136.00
2023-02-22T15:02:15.337Z,92134.00
2023-02-22T15:03:14.425Z,92132.00
2023-02-22T15:04:14.499Z,92136.00
2023-02-22T15:05:14.529Z,92136.00
2023-02-22T15:06:14.550Z,92136.00
2023-02-22T15:07:14.645Z,92136.00
2023-02-22T15:08:14.566Z,92136.00
2023-02-22T15:09:14.616Z,92136.00
2023-02-22T15:10:14.552Z,92138.00
2023-02-22T15:11:14.549Z,92138.00
2023-02-22T15:12:14.568Z,92136.00
2023-02-22T15:13:14.562Z,92138.00
2023-02-22T15:14:25.265Z,92138.00
2023-02-22T15:15:15.532Z,92138.00
2023-02-22T15:16:14.643Z,92136.00
2023-02-22T15:17:14.495Z,92138.00
2023-02-22T15:18:14.670Z,92136.00
2023-02-22T15:19:14.705Z,92140.00
2023-02-22T15:20:14.732Z,92136.00
2023-02-22T15:21:14.455Z,92136.00
2023-02-22T15:22:14.441Z,92136.00
2023-02-22T15:23:14.438Z,92138.00
2023-02-22T15:24:14.451Z,92134.00
2023-02-22T15:25:14.417Z,92136.00
2023-02-22T15:26:14.945Z,92134.00
2023-02-22T15:27:14.404Z,92130.00
2023-02-22T15:28:14.399Z,92134.00
2023-02-22T15:39:14.310Z,92136.00
2023-02-22T15:40:14.338Z,92138.00
2023-02-22T15:41:14.398Z,92136.00
2023-02-22T15:42:14.423Z,92134.00
2023-02-22T15:43:14.381Z,92136.00
2023-02-22T15:44:23.389Z,92138.00
2023-02-22T15:45:15.389Z,92138.00
2023-02-22T15:46:14.405Z,92138.00
2023-02-22T15:47:14.362Z,92136.00
2023-02-22T15:48:14.344Z,92138.00
2023-02-22T15:49:14.337Z,92138.00
2023-02-22T15:50:14.325Z,92140.00
2023-02-22T15:51:14.315Z,92140.00
2023-02-22T15:52:14.302Z,92140.00
2023-02-22T15:53:14.294Z,92136.00
2023-02-22T15:54:26.590Z,92138.00
2023-02-22T15:55:15.359Z,92140.00
2023-02-22T15:56:14.245Z,92136.00
2023-02-22T15:57:14.230Z,92138.00
2023-02-22T15:58:14.239Z,92136.00
2023-02-22T15:59:14.194Z,92136.00
2023-02-22T16:01:14.238Z,92138.00
2023-02-22T16:02:14.274Z,92140.00
2023-02-22T16:03:14.140Z,92138.00
2023-02-22T16:31:15.494Z,92170.00
2023-02-22T17:39:16.380Z,92256.00
2023-02-22T17:40:16.420Z,92258.00
2023-02-22T17:41:16.390Z,92258.00
2023-02-22T17:42:16.404Z,92256.00
2023-02-22T17:43:16.409Z,92258.00
2023-02-22T17:44:16.400Z,92254.00
2023-02-22T17:45:16.420Z,92258.00
2023-02-22T17:46:16.821Z,92260.00
2023-02-22T17:47:16.411Z,92260.00
2023-02-22T17:48:16.412Z,92264.00
2023-02-22T17:49:16.430Z,92266.00
2023-02-22T17:50:16.429Z,92270.00
2023-02-22T17:51:16.442Z,92270.00
2023-02-22T17:52:16.457Z,92271.00
2023-02-22T17:53:16.452Z,92271.00
2023-02-22T17:54:16.541Z,92273.00
2023-02-22T17:55:16.471Z,92275.00
2023-02-22T17:56:16.793Z,92275.00
2023-02-22T17:57:16.494Z,92273.00
2023-02-22T17:58:16.484Z,92273.00
2023-02-22T17:59:16.490Z,92275.00
2023-02-22T18:00:16.504Z,92273.00
2023-02-22T18:01:18.774Z,92273.00
2023-02-22T18:02:16.572Z,92277.00
2023-02-22T18:03:16.494Z,92275.00
2023-02-22T18:04:16.488Z,92277.00
2023-02-22T18:05:16.492Z,92281.00
2023-02-22T18:06:16.860Z,92283.00
2023-02-22T18:07:16.468Z,92285.00
2023-02-22T18:08:16.450Z,92283.00
2023-02-22T18:09:16.474Z,92283.00
2023-02-22T18:10:16.421Z,92285.00
2023-02-22T18:11:16.808Z,92285.00
2023-02-22T18:12:16.409Z,92283.00
2023-02-22T18:13:16.392Z,92289.00
2023-02-22T18:14:16.386Z,92289.00
2023-02-22T18:15:16.387Z,92285.00
2023-02-22T18:16:16.657Z,92287.00
2023-02-22T18:17:16.361Z,92289.00
2023-02-22T18:18:16.357Z,92287.00
2023-02-22T18:19:16.338Z,92289.00
2023-02-22T18:20:16.327Z,92289.00
2023-02-22T18:21:16.315Z,92289.00
2023-02-22T18:22:16.399Z,92289.00
2023-02-22T18:23:16.326Z,92289.00
2023-02-22T18:24:16.320Z,92291.00
2023-02-22T18:25:16.293Z,92293.00
2023-02-22T18:26:16.410Z,92293.00
2023-02-22T18:27:16.284Z,92295.00
2023-02-22T18:28:16.269Z,92297.00
2023-02-22T18:29:16.265Z,92295.00
2023-02-22T18:30:16.252Z,92301.00
2023-02-22T18:31:16.371Z,92299.00
2023-02-22T18:32:16.246Z,92297.00
2023-02-22T18:33:16.219Z,92297.00
2023-02-22T18:34:16.215Z,92297.00
2023-02-22T18:35:16.202Z,92297.00
2023-02-22T18:36:16.532Z,92301.00
2023-02-22T18:37:16.201Z,92303.00
2023-02-22T18:38:16.192Z,92305.00
2023-02-22T18:39:16.207Z,92301.00
2023-02-22T18:40:16.200Z,92301.00
2023-02-22T18:41:16.196Z,92303.00
2023-02-22T18:42:16.186Z,92303.00
2023-02-22T18:43:16.176Z,92303.00
2023-02-22T18:44:16.192Z,92303.00
2023-02-22T18:45:16.170Z,92303.00
2023-02-22T18:46:16.507Z,92299.00
2023-02-22T18:47:16.159Z,92301.00
2023-02-22T18:48:16.158Z,92305.00
2023-02-22T18:49:16.166Z,92305.00
2023-02-22T18:50:16.155Z,92303.00
2023-02-22T18:51:16.188Z,92303.00
2023-02-22T18:52:16.172Z,92303.00
2023-02-22T18:53:16.158Z,92303.00
2023-02-22T18:54:16.172Z,92303.00
2023-02-22T18:55:16.163Z,92303.00
2023-02-22T18:56:16.358Z,92305.00
2023-02-22T18:57:16.161Z,92307.00
2023-02-22T18:58:16.864Z,92307.00
2023-02-22T18:59:16.160Z,92307.00
2023-02-22T19:00:16.156Z,92307.00
2023-02-22T19:01:16.161Z,92305.00
2023-02-22T19:02:16.145Z,92311.00
2023-02-22T19:03:16.154Z,92305.00
2023-02-22T19:04:16.150Z,92307.00
2023-02-22T19:05:16.143Z,92309.00
2023-02-22T19:06:16.778Z,92307.00
2023-02-22T19:07:16.374Z,92309.00
2023-02-22T19:08:16.130Z,92313.00
2023-02-22T19:09:16.139Z,92313.00
2023-02-22T19:10:16.134Z,92309.00
2023-02-22T19:11:16.232Z,92311.00
2023-02-22T19:12:16.133Z,92311.00
2023-02-22T19:13:16.133Z,92313.00
2023-02-22T19:14:16.143Z,92311.00
2023-02-22T19:15:16.136Z,92309.00
2023-02-22T19:16:16.698Z,92311.00
2023-02-22T19:17:16.233Z,92311.00
2023-02-22T19:18:16.138Z,92309.00
2023-02-22T19:19:16.164Z,92309.00
2023-02-22T19:20:16.181Z,92307.00
2023-02-22T19:21:16.551Z,92309.00
2023-02-22T19:22:16.245Z,92311.00
2023-02-22T19:23:16.275Z,92309.00
2023-02-22T19:24:16.310Z,92311.00
2023-02-22T19:25:16.347Z,92311.00
2023-02-22T19:26:16.799Z,92315.00
2023-02-22T19:27:16.397Z,92311.00
2023-02-22T19:28:16.440Z,92315.00
2023-02-22T19:29:16.473Z,92313.00
2023-02-22T19:30:16.515Z,92317.00
2023-02-22T19:31:16.832Z,92315.00
2023-02-22T19:32:16.699Z,92313.00
2023-02-22T19:33:16.600Z,92319.00
2023-02-22T19:34:16.734Z,92313.00
2023-02-22T19:35:16.675Z,92317.00
2023-02-22T19:36:16.916Z,92315.00
2023-02-22T19:37:16.743Z,92315.00
2023-02-22T19:38:16.777Z,92315.00
2023-02-22T19:39:16.810Z,92317.00
2023-02-22T19:40:16.842Z,92319.00
2023-02-22T19:41:17.139Z,92315.00
2023-02-22T19:42:16.911Z,92319.00
2023-02-22T19:43:16.947Z,92317.00
2023-02-22T19:44:16.984Z,92321.00
2023-02-22T19:45:17.018Z,92321.00
2023-02-22T19:46:17.058Z,92328.00
2023-02-22T19:47:17.087Z,92328.00
2023-02-22T19:48:17.117Z,92330.00
2023-02-22T19:49:17.150Z,92330.00
2023-02-22T19:50:17.189Z,92330.00
2023-02-22T19:51:17.539Z,92328.00
2023-02-22T19:52:17.255Z,92328.00
2023-02-22T19:53:17.305Z,92330.00
2023-02-22T19:54:17.359Z,92330.00
2023-02-22T19:55:17.372Z,92328.00
2023-02-22T19:56:17.410Z,92328.00
2023-02-22T19:57:17.457Z,92330.00
2023-02-22T19:58:17.492Z,92330.00
2023-02-22T19:59:17.525Z,92330.00
2023-02-22T20:00:17.578Z,92332.00
2023-02-22T20:01:17.861Z,92334.00
2023-02-22T20:02:17.701Z,92334.00
2023-02-22T20:03:17.680Z,92336.00
2023-02-22T20:04:17.906Z,92340.00
2023-02-22T20:05:17.763Z,92340.00
2023-02-22T20:06:17.783Z,92338.00
2023-02-22T20:07:17.831Z,92336.00
2023-02-22T20:08:17.870Z,92338.00
2023-02-22T20:09:17.941Z,92340.00
2023-02-22T20:10:17.949Z,92340.00
2023-02-22T20:11:18.304Z,92340.00
2023-02-22T20:12:18.065Z,92342.00
2023-02-22T20:13:18.112Z,92342.00
2023-02-22T20:14:18.113Z,92344.00
2023-02-22T20:15:18.160Z,92342.00
2023-02-22T20:16:18.243Z,92346.00
2023-02-22T20:17:18.260Z,92344.00
2023-02-22T20:18:18.276Z,92348.00
2023-02-22T20:19:18.305Z,92348.00
2023-02-22T20:20:18.351Z,92348.00
2023-02-22T20:21:18.694Z,92348.00
2023-02-22T20:22:18.445Z,92348.00
2023-02-22T20:23:18.456Z,92350.00
2023-02-22T20:24:18.572Z,92352.00
2023-02-22T20:25:18.533Z,92350.00
2023-02-22T20:26:18.569Z,92352.00
2023-02-22T20:27:18.686Z,92352.00
2023-02-22T20:28:18.683Z,92354.00
2023-02-22T20:29:18.680Z,92354.00
2023-02-22T20:30:18.731Z,92354.00
2023-02-22T20:31:19.309Z,92356.00
2023-02-22T20:32:19.023Z,92352.00
2023-02-22T20:33:19.155Z,92354.00
2023-02-22T20:34:18.869Z,92354.00
2023-02-22T20:35:18.911Z,92356.00
2023-02-22T20:36:18.955Z,92358.00
2023-02-22T20:37:18.999Z,92359.00
2023-02-22T20:38:19.038Z,92363.00
2023-02-22T20:39:19.088Z,92363.00
2023-02-22T20:40:19.130Z,92363.00
2023-02-22T20:41:19.461Z,92367.00
2023-02-22T20:42:19.205Z,92367.00
2023-02-22T20:43:19.254Z,92369.00
2023-02-22T20:44:19.309Z,92369.00
2023-02-22T20:45:19.345Z,92369.00
2023-02-22T20:46:19.382Z,92369.00
2023-02-22T20:47:19.431Z,92373.00
2023-02-22T20:48:19.472Z,92373.00
2023-02-22T20:49:19.514Z,92373.00
2023-02-22T20:50:19.566Z,92375.00
2023-02-22T20:51:19.930Z,92371.00
2023-02-22T20:52:19.659Z,92377.00
2023-02-22T20:53:19.693Z,92377.00
2023-02-22T20:54:19.756Z,92377.00
2023-02-22T20:55:19.807Z,92377.00
2023-02-22T20:56:19.838Z,92373.00
2023-02-22T20:57:19.951Z,92373.00
2023-02-22T20:58:19.953Z,92371.00
2023-02-22T20:59:19.998Z,92373.00
2023-02-22T21:00:20.053Z,92373.00
2023-02-22T21:01:20.499Z,92375.00
2023-02-22T21:02:20.176Z,92369.00
2023-02-22T21:03:20.179Z,92373.00
2023-02-22T21:04:20.223Z,92375.00
2023-02-22T21:05:20.257Z,92377.00
2023-02-22T21:06:20.300Z,92377.00
2023-02-22T21:07:20.363Z,92377.00
2023-02-22T21:08:20.924Z,92377.00
2023-02-22T21:09:20.471Z,92373.00
2023-02-22T21:10:20.491Z,92373.00
2023-02-22T21:11:20.672Z,92373.00
2023-02-22T21:12:20.599Z,92375.00
2023-02-22T21:13:20.647Z,92373.00
2023-02-22T21:14:20.716Z,92375.00
2023-02-22T21:15:20.729Z,92377.00
2023-02-22T21:16:20.818Z,92377.00
2023-02-22T21:17:20.826Z,92377.00
2023-02-22T21:18:20.885Z,92377.00
2023-02-22T21:19:20.917Z,92377.00
2023-02-22T21:20:20.977Z,92373.00
2023-02-22T21:21:21.030Z,92375.00
2023-02-22T21:22:21.072Z,92375.00
2023-02-22T21:23:21.133Z,92375.00
2023-02-22T21:24:21.173Z,92375.00
2023-02-22T21:25:21.224Z,92375.00
2023-02-22T21:26:21.288Z,92375.00
2023-02-22T21:27:21.337Z,92375.00
2023-02-22T21:28:21.722Z,92377.00
2023-02-22T21:29:21.437Z,92381.00
2023-02-22T21:30:21.484Z,92383.00
2023-02-22T21:31:22.250Z,92385.00
2023-02-22T21:32:21.727Z,92383.00
2023-02-22T21:33:21.624Z,92385.00
2023-02-22T21:34:21.680Z,92387.00
2023-02-22T21:35:21.722Z,92387.00
2023-02-22T21:36:21.852Z,92387.00
2023-02-22T21:37:21.839Z,92385.00
2023-02-22T21:38:21.885Z,92389.00
2023-02-22T21:40:21.978Z,92387.00
2023-02-22T21:41:22.032Z,92385.00
2023-02-22T21:42:22.080Z,92385.00
2023-02-22T21:43:22.130Z,92383.00
2023-02-22T21:44:22.189Z,92383.00
2023-02-22T21:45:22.247Z,92385.00
2023-02-22T21:46:22.324Z,92383.00
2023-02-22T21:47:22.323Z,92381.00
2023-02-22T21:48:22.379Z,92383.00
2023-02-22T21:49:22.449Z,92385.00
2023-02-22T21:50:22.484Z,92383.00
2023-02-22T21:51:23.469Z,92383.00
2023-02-22T21:52:22.602Z,92381.00
2023-02-22T21:53:22.663Z,92383.00
2023-02-22T21:54:22.717Z,92379.00
2023-02-22T21:55:22.757Z,92383.00
2023-02-22T21:56:23.206Z,92383.00
2023-02-22T21:57:22.875Z,92381.00
2023-02-22T21:58:22.945Z,92383.00
2023-02-22T21:59:23.007Z,92381.00
2023-02-22T22:00:23.135Z,92381.00
2023-02-22T22:01:23.136Z,92381.00
2023-02-22T22:02:23.191Z,92381.00
2023-02-22T22:03:23.208Z,92381.00
2023-02-22T22:04:23.276Z,92379.00
2023-02-22T22:05:23.318Z,92379.00
2023-02-22T22:06:23.370Z,92379.00
2023-02-22T22:07:23.432Z,92379.00
2023-02-22T22:08:23.479Z,92377.00
2023-02-22T22:09:23.572Z,92375.00
2023-02-22T22:10:23.596Z,92375.00
2023-02-22T22:11:23.642Z,92379.00
2023-02-22T22:12:26.053Z,92377.00
2023-02-22T22:13:23.702Z,92377.00
2023-02-22T22:14:23.804Z,92381.00
2023-02-22T22:15:23.721Z,92383.00
2023-02-22T22:16:23.734Z,92383.00
2023-02-22T22:17:23.715Z,92383.00
2023-02-22T22:18:23.721Z,92383.00
2023-02-22T22:19:23.772Z,92385.00
2023-02-22T22:20:23.714Z,92385.00
2023-02-22T22:21:23.718Z,92383.00
2023-02-22T22:22:23.716Z,92383.00
2023-02-22T22:23:23.713Z,92385.00
2023-02-22T22:24:23.711Z,92385.00
2023-02-22T22:25:23.703Z,92387.00
2023-02-22T22:26:23.747Z,92387.00
2023-02-22T22:27:23.745Z,92387.00
2023-02-22T22:28:23.820Z,92387.00
2023-02-22T22:29:23.883Z,92385.00
2023-02-22T22:30:24.007Z,92389.00
2023-02-22T22:31:24.501Z,92387.00
2023-02-22T22:32:24.991Z,92387.00
2023-02-22T22:33:24.122Z,92389.00
2023-02-22T22:34:24.220Z,92389.00
2023-02-22T22:35:24.258Z,92389.00
2023-02-22T22:36:24.330Z,92387.00
2023-02-22T22:37:24.390Z,92389.00
